createdAt,value
2023-01-04T00:01:19.183Z,36.97
2023-01-04T00:03:45.633Z,36.99
2023-01-04T00:06:11.882Z,36.97
2023-01-04T00:08:38.241Z,36.99
2023-01-04T00:11:04.631Z,37.00
2023-01-04T00:13:30.995Z,37.02
2023-01-04T00:16:02.478Z,37.06
2023-01-04T00:18:23.775Z,36.98
2023-01-04T00:20:50.166Z,37.04
2023-01-04T00:23:16.539Z,37.02
2023-01-04T00:25:42.924Z,37.05
2023-01-04T00:28:09.311Z,37.07
2023-01-04T00:30:35.720Z,37.06
2023-01-04T00:33:02.084Z,37.18
2023-01-04T00:35:45.322Z,37.26
2023-01-04T00:37:54.829Z,37.23
2023-01-04T00:40:21.228Z,37.18
2023-01-04T00:42:47.574Z,37.17
2023-01-04T00:45:13.978Z,37.23
2023-01-04T00:47:40.322Z,37.24
2023-01-04T00:50:06.727Z,37.27
2023-01-04T00:52:33.063Z,37.21
2023-01-04T00:54:59.498Z,37.23
2023-01-04T00:57:25.826Z,37.24
2023-01-04T00:59:52.212Z,37.25
2023-01-04T01:02:18.815Z,37.26
2023-01-04T01:04:45.006Z,37.27
2023-01-04T01:07:11.356Z,37.39
2023-01-04T01:09:37.754Z,37.33
2023-01-04T01:12:04.108Z,37.34
2023-01-04T01:14:30.533Z,37.36
2023-01-04T01:16:58.518Z,37.47
2023-01-04T01:19:23.292Z,37.56
2023-01-04T01:21:49.645Z,37.50
2023-01-04T01:24:16.036Z,37.47
2023-01-04T01:29:08.576Z,37.47
2023-01-04T01:31:34.982Z,37.58
2023-01-04T01:34:01.332Z,37.54
2023-01-04T01:36:27.701Z,37.52
2023-01-04T01:38:54.082Z,37.56
2023-01-04T01:41:20.429Z,37.57
2023-01-04T01:43:46.840Z,37.56
2023-01-04T01:46:13.225Z,37.59
2023-01-04T01:48:39.613Z,37.65
2023-01-04T01:51:05.952Z,37.67
2023-01-04T01:53:32.319Z,37.67
2023-01-04T01:55:58.753Z,37.69
2023-01-04T01:58:25.150Z,37.80
2023-01-04T02:00:51.579Z,37.77
2023-01-04T02:03:18.037Z,37.80
2023-01-04T02:05:44.326Z,37.77
2023-01-04T02:08:10.730Z,37.71
2023-01-04T02:10:37.078Z,37.65
2023-01-04T02:13:03.472Z,37.63
2023-01-04T02:15:29.814Z,37.76
2023-01-04T02:17:56.209Z,37.72
2023-01-04T02:20:22.560Z,37.71
2023-01-04T02:22:48.967Z,37.75
2023-01-04T02:25:15.309Z,37.79
2023-01-04T02:27:41.704Z,37.75
2023-01-04T02:30:08.047Z,37.79
2023-01-04T02:32:34.450Z,37.78
2023-01-04T02:35:00.790Z,37.83
2023-01-04T02:37:27.193Z,37.79
2023-01-04T02:39:53.551Z,37.79
2023-01-04T02:42:19.960Z,37.90
2023-01-04T02:44:46.359Z,37.93
2023-01-04T02:47:12.731Z,37.94
2023-01-04T02:49:39.079Z,37.92
2023-01-04T02:52:05.478Z,37.94
2023-01-04T02:54:31.834Z,37.99
2023-01-04T02:57:04.606Z,37.95
2023-01-04T02:59:24.658Z,37.97
2023-01-04T03:01:51.184Z,37.88
2023-01-04T03:04:17.433Z,37.88
2023-01-04T03:06:43.823Z,37.83
2023-01-04T03:09:10.156Z,37.80
2023-01-04T03:11:36.555Z,37.79
2023-01-04T03:14:02.897Z,37.72
2023-01-04T03:16:29.314Z,37.68
2023-01-04T03:18:55.649Z,37.78
2023-01-04T03:21:22.072Z,37.85
2023-01-04T03:23:48.434Z,37.67
2023-01-04T03:26:14.816Z,37.60
2023-01-04T03:28:41.163Z,37.58
2023-01-04T03:31:07.610Z,37.63
2023-01-04T03:33:33.919Z,37.48
2023-01-04T03:36:00.323Z,37.44
2023-01-04T03:38:26.680Z,37.33
2023-01-04T03:40:53.073Z,37.34
2023-01-04T03:43:19.540Z,37.39
2023-01-04T03:45:45.928Z,37.42
2023-01-04T03:48:12.631Z,37.26
2023-01-04T03:50:39.017Z,37.17
2023-01-04T03:53:05.459Z,37.12
2023-01-04T03:55:31.866Z,37.15
2023-01-04T03:57:58.249Z,37.20
2023-01-04T04:00:24.707Z,37.18
2023-01-04T04:02:50.997Z,37.07
2023-01-04T04:05:17.421Z,36.99
2023-01-04T04:07:43.740Z,37.07
2023-01-04T04:10:10.138Z,36.96
2023-01-04T04:12:36.508Z,36.94
2023-01-04T04:15:02.884Z,36.90
2023-01-04T04:17:29.261Z,36.84
2023-01-04T04:19:55.649Z,36.91
2023-01-04T04:22:22.002Z,36.75
2023-01-04T04:24:48.407Z,36.86
2023-01-04T04:27:14.736Z,36.68
2023-01-04T04:29:41.136Z,36.64
2023-01-04T04:32:07.555Z,36.68
2023-01-04T04:34:33.888Z,36.69
2023-01-04T04:37:00.235Z,36.67
2023-01-04T04:39:26.656Z,36.62
2023-01-04T04:41:53.011Z,36.63
2023-01-04T04:44:19.419Z,36.66
2023-01-04T04:46:45.764Z,36.61
2023-01-04T04:49:12.153Z,36.52
2023-01-04T04:51:38.499Z,36.50
2023-01-04T04:54:04.984Z,36.42
2023-01-04T04:56:31.327Z,36.42
2023-01-04T04:58:57.710Z,36.37
2023-01-04T05:01:24.210Z,36.43
2023-01-04T05:03:50.464Z,36.36
2023-01-04T05:06:17.135Z,36.22
2023-01-04T05:08:43.538Z,36.20
2023-01-04T05:11:09.890Z,36.22
2023-01-04T05:13:36.301Z,36.14
2023-01-04T05:16:02.709Z,36.01
2023-01-04T05:18:29.069Z,35.92
2023-01-04T05:20:55.453Z,35.77
2023-01-04T05:23:21.845Z,35.68
2023-01-04T05:25:48.221Z,35.70
2023-01-04T05:28:14.585Z,35.65
2023-01-04T05:30:40.930Z,35.50
2023-01-04T05:33:07.332Z,35.54
2023-01-04T05:35:33.683Z,35.50
2023-01-04T05:38:00.111Z,35.41
2023-01-04T05:40:26.453Z,35.35
2023-01-04T05:42:52.845Z,35.22
2023-01-04T05:45:19.179Z,35.36
2023-01-04T05:47:45.575Z,35.34
2023-01-04T05:50:11.923Z,35.25
2023-01-04T05:52:38.324Z,35.11
2023-01-04T05:55:04.674Z,35.08
2023-01-04T05:57:31.070Z,35.10
2023-01-04T05:59:57.431Z,35.09
2023-01-04T06:02:23.934Z,35.08
2023-01-04T06:04:56.350Z,35.04
2023-01-04T06:07:16.571Z,35.10
2023-01-04T06:09:42.981Z,35.09
2023-01-04T06:12:09.349Z,35.04
2023-01-04T06:14:35.817Z,34.95
2023-01-04T06:17:02.279Z,34.96
2023-01-04T06:19:28.641Z,34.89
2023-01-04T06:21:54.986Z,34.85
2023-01-04T06:24:21.371Z,34.93
2023-01-04T06:26:47.727Z,34.91
2023-01-04T06:29:14.125Z,34.80
2023-01-04T06:31:40.471Z,34.78
2023-01-04T06:34:06.863Z,34.91
2023-01-04T06:36:33.210Z,34.98
2023-01-04T06:38:59.624Z,34.89
2023-01-04T06:41:25.967Z,34.71
2023-01-04T06:43:52.382Z,34.73
2023-01-04T06:46:18.804Z,34.68
2023-01-04T06:48:45.157Z,34.65
2023-01-04T06:51:11.503Z,34.61
2023-01-04T06:53:37.906Z,34.60
2023-01-04T06:56:04.280Z,34.58
2023-01-04T06:58:30.653Z,34.53
2023-01-04T07:00:57.035Z,34.66
2023-01-04T07:03:23.521Z,34.60
2023-01-04T07:05:49.726Z,34.66
2023-01-04T07:08:16.128Z,34.57
2023-01-04T07:10:42.476Z,34.57
2023-01-04T07:13:08.926Z,34.56
2023-01-04T07:15:37.422Z,34.56
2023-01-04T07:18:01.684Z,34.47
2023-01-04T07:20:28.050Z,34.48
2023-01-04T07:22:54.449Z,34.71
2023-01-04T07:25:20.796Z,34.46
2023-01-04T07:27:47.209Z,34.47
2023-01-04T07:30:13.546Z,34.62
2023-01-04T07:32:39.937Z,34.73
2023-01-04T07:35:06.333Z,34.75
2023-01-04T07:37:32.701Z,34.64
2023-01-04T07:39:59.056Z,34.60
2023-01-04T07:42:25.445Z,34.63
2023-01-04T07:44:51.798Z,34.80
2023-01-04T07:47:18.200Z,34.75
2023-01-04T07:49:44.546Z,34.68
2023-01-04T07:52:10.974Z,34.61
2023-01-04T07:54:37.324Z,34.63
2023-01-04T07:57:03.725Z,34.52
2023-01-04T07:59:30.110Z,34.50
2023-01-04T08:01:56.589Z,34.56
2023-01-04T08:04:22.955Z,34.46
2023-01-04T08:06:49.303Z,34.51
2023-01-04T08:09:15.681Z,34.42
2023-01-04T08:11:42.087Z,34.51
2023-01-04T08:14:08.419Z,34.31
2023-01-04T08:16:34.951Z,34.29
2023-01-04T08:19:01.213Z,35.05
2023-01-04T08:21:27.617Z,34.27
2023-01-04T08:23:53.958Z,34.32
2023-01-04T08:26:20.362Z,34.46
2023-01-04T08:28:46.706Z,34.46
2023-01-04T08:31:13.163Z,34.39
2023-01-04T08:33:39.436Z,34.23
2023-01-04T08:36:05.859Z,34.24
2023-01-04T08:38:59.367Z,34.22
2023-01-04T08:41:07.103Z,34.35
2023-01-04T08:43:24.947Z,34.48
2023-01-04T08:45:51.342Z,34.29
2023-01-04T08:48:24.305Z,34.19
2023-01-04T08:50:44.100Z,34.16
2023-01-04T08:53:10.456Z,34.17
2023-01-04T08:55:36.839Z,34.23
2023-01-04T08:58:03.186Z,34.03
2023-01-04T09:00:29.596Z,34.07
2023-01-04T09:02:56.053Z,34.13
2023-01-04T09:05:23.268Z,34.04
2023-01-04T09:07:48.681Z,34.13
2023-01-04T09:10:15.077Z,34.19
2023-01-04T09:12:41.440Z,34.17
2023-01-04T09:15:07.831Z,34.15
2023-01-04T09:17:34.171Z,34.23
2023-01-04T09:20:00.607Z,34.19
2023-01-04T09:22:27.043Z,34.26
2023-01-04T09:24:53.375Z,34.01
2023-01-04T09:27:19.753Z,34.30
2023-01-04T09:29:46.158Z,34.21
2023-01-04T09:32:16.512Z,34.19
2023-01-04T09:34:38.940Z,34.21
2023-01-04T09:37:05.287Z,34.36
2023-01-04T09:39:31.685Z,34.48
2023-01-04T09:41:58.180Z,34.26
2023-01-04T09:44:34.528Z,34.29
2023-01-04T09:46:50.877Z,34.16
2023-01-04T09:49:17.206Z,34.13
2023-01-04T09:51:43.578Z,34.36
2023-01-04T09:54:09.953Z,34.21
2023-01-04T09:56:36.315Z,34.20
2023-01-04T09:59:02.719Z,34.22
2023-01-04T10:01:29.180Z,34.10
2023-01-04T10:03:55.463Z,34.10
2023-01-04T10:06:21.812Z,34.06
2023-01-04T10:08:48.313Z,33.72
2023-01-04T10:11:14.840Z,33.72
2023-01-04T10:13:41.240Z,34.11
2023-01-04T10:16:07.675Z,34.20
2023-01-04T10:19:29.683Z,34.41
2023-01-04T10:21:26.447Z,34.18
2023-01-04T10:23:26.788Z,34.22
2023-01-04T10:25:53.131Z,34.22
2023-01-04T10:28:19.543Z,34.14
2023-01-04T10:30:45.888Z,34.19
2023-01-04T10:33:12.310Z,34.05
2023-01-04T10:35:38.645Z,34.05
2023-01-04T10:38:05.077Z,34.29
2023-01-04T10:40:31.369Z,34.48
2023-01-04T10:42:57.799Z,34.33
2023-01-04T10:45:24.121Z,34.33
2023-01-04T10:47:50.536Z,34.19
2023-01-04T10:50:16.943Z,34.19
2023-01-04T10:52:43.266Z,34.02
2023-01-04T10:55:09.620Z,34.03
2023-01-04T10:57:36.039Z,33.98
2023-01-04T11:00:02.382Z,34.02
2023-01-04T11:02:28.880Z,34.18
2023-01-04T11:04:55.137Z,33.84
2023-01-04T11:07:21.722Z,33.90
2023-01-04T11:09:48.077Z,33.88
2023-01-04T11:12:14.472Z,33.84
2023-01-04T11:14:40.827Z,33.80
2023-01-04T11:17:07.211Z,33.64
2023-01-04T11:19:33.583Z,33.64
2023-01-04T11:21:59.975Z,33.84
2023-01-04T11:24:34.071Z,33.74
2023-01-04T11:26:52.812Z,33.94
2023-01-04T11:29:19.156Z,33.75
2023-01-04T11:31:45.569Z,33.83
2023-01-04T11:34:11.928Z,33.79
2023-01-04T11:36:38.318Z,33.83
2023-01-04T11:39:04.676Z,33.83
2023-01-04T11:41:31.054Z,33.88
2023-01-04T11:43:57.404Z,33.87
2023-01-04T11:46:23.931Z,33.87
2023-01-04T11:48:50.282Z,33.90
2023-01-04T11:51:17.277Z,33.90
2023-01-04T11:53:43.078Z,33.83
2023-01-04T11:56:09.471Z,33.09
2023-01-04T11:58:35.853Z,33.09
2023-01-04T12:01:02.243Z,33.68
2023-01-04T12:03:28.592Z,33.65
2023-01-04T12:05:54.979Z,33.70
2023-01-04T12:08:21.332Z,33.86
2023-01-04T12:10:47.753Z,33.77
2023-01-04T12:13:14.090Z,33.87
2023-01-04T12:15:40.495Z,33.50
2023-01-04T12:18:06.849Z,33.50
2023-01-04T12:20:33.237Z,33.89
2023-01-04T12:22:59.578Z,33.78
2023-01-04T12:25:26.004Z,33.78
2023-01-04T12:27:52.328Z,33.58
2023-01-04T12:30:19.933Z,33.24
2023-01-04T12:32:45.110Z,33.59
2023-01-04T12:35:11.465Z,33.63
2023-01-04T12:37:37.799Z,33.51
2023-01-04T12:40:04.210Z,33.53
2023-01-04T12:42:30.567Z,33.51
2023-01-04T12:44:56.941Z,33.95
2023-01-04T12:47:23.281Z,33.45
2023-01-04T12:49:49.683Z,33.53
2023-01-04T12:52:42.614Z,33.66
2023-01-04T12:54:42.415Z,33.28
2023-01-04T12:57:08.769Z,33.88
2023-01-04T12:59:35.162Z,33.95
2023-01-04T13:02:01.644Z,33.91
2023-01-04T13:04:27.906Z,33.86
2023-01-04T13:06:54.240Z,33.90
2023-01-04T13:09:24.523Z,33.90
2023-01-04T13:11:46.992Z,33.79
2023-01-04T13:14:13.372Z,34.16
2023-01-04T13:16:39.832Z,33.96
2023-01-04T13:19:06.111Z,33.90
2023-01-04T13:21:32.452Z,33.84
2023-01-04T13:23:58.864Z,34.01
2023-01-04T13:26:25.195Z,34.01
2023-01-04T13:28:57.943Z,34.25
2023-01-04T13:31:17.964Z,34.01
2023-01-04T13:33:44.371Z,33.51
2023-01-04T13:36:10.739Z,34.18
2023-01-04T13:38:37.128Z,34.18
2023-01-04T13:41:03.469Z,33.38
2023-01-04T13:43:29.858Z,34.03
2023-01-04T13:46:03.762Z,33.87
2023-01-04T13:48:22.611Z,33.04
2023-01-04T13:50:49.076Z,33.62
2023-01-04T13:53:15.376Z,33.62
2023-01-04T13:55:41.767Z,34.05
2023-01-04T13:58:08.238Z,34.05
2023-01-04T14:03:01.061Z,34.09
2023-01-04T14:05:27.259Z,34.02
2023-01-04T14:07:53.652Z,33.95
2023-01-04T14:10:20.010Z,34.00
2023-01-04T14:12:46.388Z,34.04
2023-01-04T14:15:12.752Z,33.98
2023-01-04T14:20:05.568Z,33.58
2023-01-04T14:22:32.008Z,32.92
2023-01-04T14:25:09.084Z,31.86
2023-01-04T14:27:24.773Z,31.86
2023-01-04T14:29:51.127Z,31.36
2023-01-04T14:32:17.578Z,31.36
2023-01-04T14:34:43.866Z,31.22
2023-01-04T14:37:10.275Z,31.20
2023-01-04T14:39:36.599Z,31.20
2023-01-04T14:42:03.003Z,31.07
2023-01-04T14:44:29.350Z,31.10
2023-01-04T14:46:55.996Z,31.16
2023-01-04T14:49:22.320Z,30.81
2023-01-04T14:51:48.654Z,30.81
2023-01-04T14:54:20.454Z,31.14
2023-01-04T14:56:41.452Z,31.14
2023-01-04T14:59:07.882Z,31.12
2023-01-04T15:01:34.389Z,31.10
2023-01-04T15:04:00.683Z,31.10
2023-01-04T15:06:27.008Z,31.22
2023-01-04T15:08:53.331Z,31.18
2023-01-04T15:11:19.796Z,31.03
2023-01-04T15:13:46.147Z,31.26
2023-01-04T15:16:12.618Z,31.48
2023-01-04T15:18:38.913Z,31.48
2023-01-04T15:21:05.346Z,31.07
2023-01-04T15:23:31.684Z,31.07
2023-01-04T15:25:58.086Z,31.16
2023-01-04T15:28:24.457Z,31.15
2023-01-04T15:30:50.954Z,31.41
2023-01-04T15:33:17.267Z,31.42
2023-01-04T15:35:44.424Z,31.24
2023-01-04T15:38:17.709Z,31.21
2023-01-04T15:40:37.188Z,31.15
2023-01-04T15:43:03.556Z,31.28
2023-01-04T15:45:29.964Z,31.19
2023-01-04T15:47:56.308Z,31.07
2023-01-04T15:50:22.716Z,31.07
2023-01-04T15:52:49.062Z,31.13
2023-01-04T15:55:15.467Z,30.94
2023-01-04T15:57:43.917Z,31.07
2023-01-04T16:00:08.207Z,31.18
2023-01-04T16:02:34.731Z,31.07
2023-01-04T16:05:00.949Z,31.11
2023-01-04T16:07:32.666Z,31.12
2023-01-04T16:09:53.718Z,31.12
2023-01-04T16:12:20.027Z,30.64
2023-01-04T16:14:46.429Z,30.64
2023-01-04T16:17:12.785Z,31.08
2023-01-04T16:19:39.167Z,31.03
2023-01-04T16:22:05.510Z,31.00
2023-01-04T16:26:58.250Z,30.99
2023-01-04T16:29:24.635Z,31.07
2023-01-04T16:34:36.281Z,31.29
2023-01-04T16:37:02.631Z,31.06
2023-01-04T16:41:55.422Z,30.94
2023-01-04T16:44:21.758Z,31.09
2023-01-04T16:46:48.181Z,31.01
2023-01-04T16:49:14.493Z,30.75
2023-01-04T16:51:40.868Z,30.75
2023-01-04T16:54:07.203Z,30.94
2023-01-04T16:56:33.587Z,30.87
2023-01-04T16:58:59.926Z,30.93
2023-01-04T17:01:26.408Z,30.55
2023-01-04T17:03:52.674Z,30.62
2023-01-04T17:06:19.032Z,30.62
2023-01-04T17:08:45.404Z,30.83
2023-01-04T17:11:51.006Z,30.83
2023-01-04T17:13:38.127Z,31.20
2023-01-04T17:16:04.526Z,31.20
2023-01-04T17:18:30.880Z,30.69
2023-01-04T17:21:16.863Z,30.64
2023-01-04T17:23:23.601Z,30.64
2023-01-04T17:25:49.987Z,30.75
2023-01-04T17:28:21.273Z,30.71
2023-01-04T17:30:42.732Z,30.72
2023-01-04T17:33:09.073Z,30.49
2023-01-04T17:35:35.457Z,30.63
2023-01-04T17:38:01.792Z,30.70
2023-01-04T17:40:28.182Z,30.45
2023-01-04T17:42:54.516Z,30.45
2023-01-04T17:45:21.164Z,30.56
2023-01-04T17:47:47.261Z,30.74
2023-01-04T17:50:13.742Z,30.55
2023-01-04T17:52:40.093Z,30.58
2023-01-04T17:55:06.460Z,30.54
2023-01-04T17:57:32.838Z,30.48
2023-01-04T17:59:59.220Z,30.48
2023-01-04T18:02:25.658Z,30.65
2023-01-04T18:04:51.970Z,30.65
2023-01-04T18:07:18.326Z,30.57
2023-01-04T18:09:44.693Z,30.44
2023-01-04T18:12:13.487Z,30.44
2023-01-04T18:14:39.880Z,30.59
2023-01-04T18:17:06.434Z,30.70
2023-01-04T18:19:32.597Z,30.75
2023-01-04T18:21:58.980Z,30.75
2023-01-04T18:24:40.726Z,30.70
2023-01-04T18:29:18.043Z,30.69
2023-01-04T18:31:44.394Z,30.61
2023-01-04T18:34:10.765Z,30.61
2023-01-04T18:36:42.488Z,30.43
2023-01-04T18:39:03.496Z,30.94
2023-01-04T18:41:29.838Z,30.83
2023-01-04T18:44:13.464Z,30.71
2023-01-04T18:46:22.628Z,30.71
2023-01-04T18:48:48.965Z,30.63
2023-01-04T18:51:15.297Z,30.56
2023-01-04T18:53:41.685Z,30.60
2023-01-04T18:56:08.029Z,30.91
2023-01-04T18:58:34.396Z,31.12
2023-01-04T19:01:00.896Z,31.12
2023-01-04T19:03:27.295Z,30.64
2023-01-04T19:05:53.612Z,30.63
2023-01-04T19:08:20.006Z,30.66
2023-01-04T19:10:46.347Z,30.76
2023-01-04T19:13:12.721Z,30.73
2023-01-04T19:15:44.047Z,30.60
2023-01-04T19:18:05.437Z,30.60
2023-01-04T19:20:31.785Z,30.94
2023-01-04T19:22:58.169Z,30.98
2023-01-04T19:25:28.234Z,31.05
2023-01-04T19:27:50.917Z,31.09
2023-01-04T19:30:17.243Z,31.12
2023-01-04T19:32:43.634Z,30.98
2023-01-04T19:35:09.978Z,31.19
2023-01-04T19:37:36.368Z,31.20
2023-01-04T19:40:02.701Z,31.32
2023-01-04T19:42:29.081Z,31.26
2023-01-04T19:44:55.443Z,31.29
2023-01-04T19:47:21.823Z,31.17
2023-01-04T19:49:48.161Z,31.54
2023-01-04T19:52:14.580Z,31.54
2023-01-04T19:54:40.881Z,31.56
2023-01-04T19:57:07.268Z,31.23
2023-01-04T19:59:33.602Z,31.67
2023-01-04T20:02:00.088Z,31.59
2023-01-04T20:04:26.333Z,31.68
2023-01-04T20:06:52.716Z,31.72
2023-01-04T20:09:19.064Z,31.72
2023-01-04T20:11:45.447Z,31.77
2023-01-04T20:14:11.798Z,31.79
2023-01-04T20:16:38.216Z,31.78
2023-01-04T20:19:04.557Z,31.84
2023-01-04T20:21:30.960Z,31.84
2023-01-04T20:23:57.291Z,31.83
2023-01-04T20:26:23.681Z,32.17
2023-01-04T20:28:50.025Z,31.99
2023-01-04T20:31:16.452Z,31.94
2023-01-04T20:33:42.733Z,31.94
2023-01-04T20:36:09.144Z,31.98
2023-01-04T20:38:39.656Z,32.04
2023-01-04T20:41:01.924Z,32.04
2023-01-04T20:43:28.342Z,32.19
2023-01-04T20:45:54.754Z,32.05
2023-01-04T20:48:21.115Z,32.00
2023-01-04T20:50:47.499Z,32.05
2023-01-04T20:53:13.835Z,32.05
2023-01-04T20:55:40.837Z,32.05
2023-01-04T20:58:07.131Z,32.06
2023-01-04T21:00:33.511Z,31.91
2023-01-04T21:02:59.954Z,31.91
2023-01-04T21:05:26.253Z,32.07
2023-01-04T21:07:52.601Z,32.14
2023-01-04T21:10:18.986Z,31.91
2023-01-04T21:12:47.532Z,31.91
2023-01-04T21:15:15.155Z,32.12
2023-01-04T21:17:40.274Z,31.87
2023-01-04T21:20:06.665Z,32.20
2023-01-04T21:22:33.027Z,32.20
2023-01-04T21:24:59.414Z,32.12
2023-01-04T21:27:25.754Z,32.12
2023-01-04T21:29:52.131Z,32.01
2023-01-04T21:32:18.484Z,32.23
2023-01-04T21:34:44.859Z,32.25
2023-01-04T21:37:11.204Z,32.27
2023-01-04T21:39:37.619Z,32.32
2023-01-04T21:42:03.981Z,32.34
2023-01-04T21:44:30.395Z,32.31
2023-01-04T21:46:56.762Z,32.35
2023-01-04T21:49:23.126Z,32.37
2023-01-04T21:51:49.472Z,32.41
2023-01-04T21:54:15.858Z,32.35
2023-01-04T21:56:42.191Z,32.30
2023-01-04T21:59:08.615Z,32.37
2023-01-04T22:01:35.703Z,32.39
2023-01-04T22:04:01.449Z,32.40
2023-01-04T22:06:27.699Z,32.40
2023-01-04T22:08:54.115Z,32.44
2023-01-04T22:11:20.467Z,32.42
2023-01-04T22:13:46.852Z,32.54
2023-01-04T22:16:13.241Z,32.50
2023-01-04T22:18:39.568Z,32.51
2023-01-04T22:21:05.947Z,32.53
2023-01-04T22:23:32.332Z,32.56
2023-01-04T22:25:58.663Z,32.53
2023-01-04T22:28:25.053Z,32.53
2023-01-04T22:30:51.395Z,32.60
2023-01-04T22:33:17.775Z,32.61
2023-01-04T22:35:44.115Z,32.71
2023-01-04T22:38:10.529Z,32.60
2023-01-04T22:40:36.918Z,32.68
2023-01-04T22:43:03.339Z,32.67
2023-01-04T22:45:30.785Z,32.71
2023-01-04T22:47:57.174Z,32.68
2023-01-04T22:50:23.517Z,32.75
2023-01-04T22:52:51.148Z,32.73
2023-01-04T22:55:16.258Z,34.28
2023-01-04T22:57:42.689Z,35.39
2023-01-04T23:00:09.003Z,35.54
2023-01-04T23:02:35.472Z,34.66
2023-01-04T23:05:01.752Z,33.37
2023-01-04T23:07:28.140Z,33.06
2023-01-04T23:09:54.477Z,32.95
2023-01-04T23:12:20.873Z,32.88
2023-01-04T23:14:47.211Z,32.89
2023-01-04T23:17:13.602Z,32.90
2023-01-04T23:19:39.966Z,32.85
2023-01-04T23:22:06.380Z,32.86
2023-01-04T23:24:32.722Z,32.94
2023-01-04T23:26:59.114Z,32.93
2023-01-04T23:29:29.244Z,32.87
2023-01-04T23:31:51.919Z,32.95
2023-01-04T23:34:18.190Z,32.92
2023-01-04T23:36:44.579Z,32.89
2023-01-04T23:39:10.935Z,32.90
2023-01-04T23:41:37.312Z,33.01
2023-01-04T23:44:03.664Z,33.05
2023-01-04T23:46:30.077Z,33.00
2023-01-04T23:48:56.446Z,35.87
2023-01-04T23:51:22.841Z,36.05
2023-01-04T23:53:49.191Z,36.13
2023-01-04T23:56:15.577Z,36.05
2023-01-04T23:58:41.928Z,35.87
